sensor_id;sensor_type;location;lat;lon;timestamp;P1;durP1;ratioP1;P2;durP2;ratioP2
78382;SDS011;67668;52.294;4.692;2023-07-13T00:01:59;10.15;;;2.58;;
78382;SDS011;67668;52.294;4.692;2023-07-13T00:04:25;12.70;;;2.70;;
78382;SDS011;67668;52.294;4.692;2023-07-13T00:06:51;16.48;;;2.80;;
78382;SDS011;67668;52.294;4.692;2023-07-13T00:09:17;10.85;;;2.75;;
78382;SDS011;67668;52.294;4.692;2023-07-13T00:11:43;10.90;;;2.30;;
78382;SDS011;67668;52.294;4.692;2023-07-13T00:14:10;10.13;;;2.13;;
78382;SDS011;67668;52.294;4.692;2023-07-13T00:16:36;10.70;;;1.95;;
78382;SDS011;67668;52.294;4.692;2023-07-13T00:19:04;13.77;;;2.10;;
78382;SDS011;67668;52.294;4.692;2023-07-13T00:21:30;9.05;;;2.05;;
78382;SDS011;67668;52.294;4.692;2023-07-13T00:23:55;9.15;;;2.05;;
78382;SDS011;67668;52.294;4.692;2023-07-13T00:26:21;12.57;;;2.10;;
78382;SDS011;67668;52.294;4.692;2023-07-13T00:28:47;10.98;;;1.90;;
78382;SDS011;67668;52.294;4.692;2023-07-13T00:31:13;12.82;;;2.83;;
78382;SDS011;67668;52.294;4.692;2023-07-13T00:33:41;7.95;;;1.75;;
78382;SDS011;67668;52.294;4.692;2023-07-13T00:36:08;6.57;;;1.45;;
78382;SDS011;67668;52.294;4.692;2023-07-13T00:38:34;5.60;;;1.40;;
78382;SDS011;67668;52.294;4.692;2023-07-13T00:41:00;6.90;;;1.25;;
78382;SDS011;67668;52.294;4.692;2023-07-13T00:43:27;4.47;;;0.75;;
78382;SDS011;67668;52.294;4.692;2023-07-13T00:48:22;2.70;;;0.43;;
78382;SDS011;67668;52.294;4.692;2023-07-13T00:50:52;3.92;;;0.68;;
78382;SDS011;67668;52.294;4.692;2023-07-13T00:53:20;1.95;;;0.60;;
78382;SDS011;67668;52.294;4.692;2023-07-13T00:55:47;2.13;;;0.60;;
78382;SDS011;67668;52.294;4.692;2023-07-13T00:58:15;2.67;;;0.75;;
78382;SDS011;67668;52.294;4.692;2023-07-13T01:00:40;2.22;;;0.52;;
78382;SDS011;67668;52.294;4.692;2023-07-13T01:03:06;4.88;;;0.70;;
78382;SDS011;67668;52.294;4.692;2023-07-13T01:05:32;2.92;;;0.57;;
78382;SDS011;67668;52.294;4.692;2023-07-13T01:08:01;2.50;;;0.50;;
78382;SDS011;67668;52.294;4.692;2023-07-13T01:10:29;5.00;;;0.60;;
78382;SDS011;67668;52.294;4.692;2023-07-13T01:12:54;4.63;;;0.85;;
78382;SDS011;67668;52.294;4.692;2023-07-13T01:15:34;3.70;;;0.70;;
78382;SDS011;67668;52.294;4.692;2023-07-13T01:18:03;2.80;;;0.63;;
78382;SDS011;67668;52.294;4.692;2023-07-13T01:20:30;4.80;;;1.15;;
78382;SDS011;67668;52.294;4.692;2023-07-13T01:23:11;5.22;;;0.88;;
78382;SDS011;67668;52.294;4.692;2023-07-13T01:25:38;5.43;;;1.55;;
78382;SDS011;67668;52.294;4.692;2023-07-13T01:28:05;3.38;;;1.10;;
78382;SDS011;67668;52.294;4.692;2023-07-13T01:30:34;3.60;;;0.52;;
78382;SDS011;67668;52.294;4.692;2023-07-13T01:33:00;2.00;;;0.50;;
78382;SDS011;67668;52.294;4.692;2023-07-13T01:35:27;5.40;;;0.80;;
78382;SDS011;67668;52.294;4.692;2023-07-13T01:37:52;3.53;;;0.70;;
78382;SDS011;67668;52.294;4.692;2023-07-13T01:40:20;4.72;;;0.88;;
78382;SDS011;67668;52.294;4.692;2023-07-13T01:42:45;4.53;;;1.17;;
78382;SDS011;67668;52.294;4.692;2023-07-13T01:45:11;6.85;;;1.10;;
78382;SDS011;67668;52.294;4.692;2023-07-13T01:47:37;4.32;;;1.15;;
78382;SDS011;67668;52.294;4.692;2023-07-13T01:50:02;4.28;;;0.98;;
78382;SDS011;67668;52.294;4.692;2023-07-13T01:52:28;6.43;;;1.02;;
78382;SDS011;67668;52.294;4.692;2023-07-13T01:54:53;3.28;;;0.65;;
78382;SDS011;67668;52.294;4.692;2023-07-13T01:57:19;4.93;;;0.80;;
78382;SDS011;67668;52.294;4.692;2023-07-13T01:59:44;2.65;;;0.82;;
78382;SDS011;67668;52.294;4.692;2023-07-13T02:02:10;3.08;;;0.75;;
78382;SDS011;67668;52.294;4.692;2023-07-13T02:04:35;4.13;;;1.15;;
78382;SDS011;67668;52.294;4.692;2023-07-13T02:07:02;4.93;;;0.88;;
78382;SDS011;67668;52.294;4.692;2023-07-13T02:09:28;2.38;;;0.85;;
78382;SDS011;67668;52.294;4.692;2023-07-13T02:11:53;3.88;;;0.88;;
78382;SDS011;67668;52.294;4.692;2023-07-13T02:14:18;5.13;;;1.00;;
78382;SDS011;67668;52.294;4.692;2023-07-13T02:16:44;3.03;;;0.60;;
78382;SDS011;67668;52.294;4.692;2023-07-13T02:19:09;5.25;;;0.95;;
78382;SDS011;67668;52.294;4.692;2023-07-13T02:21:35;5.20;;;1.02;;
78382;SDS011;67668;52.294;4.692;2023-07-13T02:24:00;3.17;;;0.90;;
78382;SDS011;67668;52.294;4.692;2023-07-13T02:26:27;4.82;;;0.73;;
78382;SDS011;67668;52.294;4.692;2023-07-13T02:28:53;3.13;;;0.55;;
78382;SDS011;67668;52.294;4.692;2023-07-13T02:31:18;3.90;;;1.55;;
78382;SDS011;67668;52.294;4.692;2023-07-13T02:33:44;3.28;;;1.00;;
78382;SDS011;67668;52.294;4.692;2023-07-13T02:36:10;5.10;;;0.90;;
78382;SDS011;67668;52.294;4.692;2023-07-13T02:38:36;5.05;;;0.55;;
78382;SDS011;67668;52.294;4.692;2023-07-13T02:41:05;5.25;;;0.70;;
78382;SDS011;67668;52.294;4.692;2023-07-13T02:43:32;5.93;;;0.82;;
78382;SDS011;67668;52.294;4.692;2023-07-13T02:45:58;2.00;;;0.52;;
78382;SDS011;67668;52.294;4.692;2023-07-13T02:48:29;4.55;;;1.08;;
78382;SDS011;67668;52.294;4.692;2023-07-13T02:50:54;5.93;;;0.73;;
78382;SDS011;67668;52.294;4.692;2023-07-13T02:53:20;2.63;;;1.48;;
78382;SDS011;67668;52.294;4.692;2023-07-13T02:55:46;2.85;;;0.73;;
78382;SDS011;67668;52.294;4.692;2023-07-13T02:58:12;2.38;;;0.55;;
78382;SDS011;67668;52.294;4.692;2023-07-13T03:00:42;5.07;;;0.80;;
78382;SDS011;67668;52.294;4.692;2023-07-13T03:03:08;2.53;;;0.85;;
78382;SDS011;67668;52.294;4.692;2023-07-13T03:05:34;3.25;;;0.60;;
78382;SDS011;67668;52.294;4.692;2023-07-13T03:07:59;3.40;;;1.33;;
78382;SDS011;67668;52.294;4.692;2023-07-13T03:10:25;2.30;;;0.70;;
78382;SDS011;67668;52.294;4.692;2023-07-13T03:12:50;4.72;;;0.88;;
78382;SDS011;67668;52.294;4.692;2023-07-13T03:15:16;3.13;;;0.45;;
78382;SDS011;67668;52.294;4.692;2023-07-13T03:17:41;2.78;;;0.60;;
78382;SDS011;67668;52.294;4.692;2023-07-13T03:20:07;2.53;;;0.40;;
78382;SDS011;67668;52.294;4.692;2023-07-13T03:22:32;5.55;;;1.02;;
78382;SDS011;67668;52.294;4.692;2023-07-13T03:24:58;5.50;;;1.50;;
78382;SDS011;67668;52.294;4.692;2023-07-13T03:27:24;3.25;;;1.00;;
78382;SDS011;67668;52.294;4.692;2023-07-13T03:29:49;9.25;;;1.30;;
78382;SDS011;67668;52.294;4.692;2023-07-13T03:32:15;6.78;;;2.25;;
78382;SDS011;67668;52.294;4.692;2023-07-13T03:34:40;6.10;;;0.70;;
78382;SDS011;67668;52.294;4.692;2023-07-13T03:37:05;6.15;;;0.93;;
78382;SDS011;67668;52.294;4.692;2023-07-13T03:39:31;4.88;;;0.68;;
78382;SDS011;67668;52.294;4.692;2023-07-13T03:41:56;5.07;;;0.97;;
78382;SDS011;67668;52.294;4.692;2023-07-13T03:44:22;4.20;;;0.85;;
78382;SDS011;67668;52.294;4.692;2023-07-13T03:46:47;5.07;;;0.68;;
78382;SDS011;67668;52.294;4.692;2023-07-13T03:49:13;4.15;;;1.02;;
78382;SDS011;67668;52.294;4.692;2023-07-13T03:51:38;4.87;;;0.90;;
78382;SDS011;67668;52.294;4.692;2023-07-13T03:54:04;2.70;;;1.33;;
78382;SDS011;67668;52.294;4.692;2023-07-13T03:56:29;4.97;;;0.80;;
78382;SDS011;67668;52.294;4.692;2023-07-13T03:58:55;3.95;;;0.82;;
78382;SDS011;67668;52.294;4.692;2023-07-13T04:01:22;6.53;;;0.85;;
78382;SDS011;67668;52.294;4.692;2023-07-13T04:03:51;5.15;;;0.70;;
78382;SDS011;67668;52.294;4.692;2023-07-13T04:06:18;10.85;;;1.23;;
78382;SDS011;67668;52.294;4.692;2023-07-13T04:08:47;3.35;;;1.20;;
78382;SDS011;67668;52.294;4.692;2023-07-13T04:11:15;4.57;;;1.75;;
78382;SDS011;67668;52.294;4.692;2023-07-13T04:13:41;4.95;;;1.10;;
78382;SDS011;67668;52.294;4.692;2023-07-13T04:16:06;6.25;;;1.33;;
78382;SDS011;67668;52.294;4.692;2023-07-13T04:18:34;4.93;;;1.00;;
78382;SDS011;67668;52.294;4.692;2023-07-13T04:20:59;5.20;;;1.20;;
78382;SDS011;67668;52.294;4.692;2023-07-13T04:23:25;2.28;;;0.80;;
78382;SDS011;67668;52.294;4.692;2023-07-13T04:25:51;7.85;;;1.20;;
78382;SDS011;67668;52.294;4.692;2023-07-13T04:28:18;6.07;;;1.15;;
78382;SDS011;67668;52.294;4.692;2023-07-13T04:30:44;2.67;;;0.82;;
78382;SDS011;67668;52.294;4.692;2023-07-13T04:33:10;8.65;;;1.25;;
78382;SDS011;67668;52.294;4.692;2023-07-13T04:35:36;4.47;;;1.00;;
78382;SDS011;67668;52.294;4.692;2023-07-13T04:38:02;8.82;;;1.20;;
78382;SDS011;67668;52.294;4.692;2023-07-13T04:40:28;3.00;;;1.13;;
78382;SDS011;67668;52.294;4.692;2023-07-13T04:42:54;7.72;;;2.08;;
78382;SDS011;67668;52.294;4.692;2023-07-13T04:45:20;3.33;;;1.23;;
78382;SDS011;67668;52.294;4.692;2023-07-13T04:47:45;7.80;;;1.40;;
78382;SDS011;67668;52.294;4.692;2023-07-13T04:50:12;11.50;;;1.83;;
78382;SDS011;67668;52.294;4.692;2023-07-13T04:52:46;4.68;;;1.80;;
78382;SDS011;67668;52.294;4.692;2023-07-13T04:55:11;8.13;;;1.40;;
78382;SDS011;67668;52.294;4.692;2023-07-13T04:57:38;5.25;;;1.50;;
78382;SDS011;67668;52.294;4.692;2023-07-13T05:00:04;7.47;;;1.27;;
78382;SDS011;67668;52.294;4.692;2023-07-13T05:02:30;7.68;;;1.80;;
78382;SDS011;67668;52.294;4.692;2023-07-13T05:04:57;6.95;;;1.42;;
78382;SDS011;67668;52.294;4.692;2023-07-13T05:07:22;7.25;;;1.25;;
78382;SDS011;67668;52.294;4.692;2023-07-13T05:09:48;6.47;;;1.47;;
78382;SDS011;67668;52.294;4.692;2023-07-13T05:12:14;6.55;;;1.60;;
78382;SDS011;67668;52.294;4.692;2023-07-13T05:14:40;4.93;;;1.65;;
78382;SDS011;67668;52.294;4.692;2023-07-13T05:17:06;6.70;;;1.53;;
78382;SDS011;67668;52.294;4.692;2023-07-13T05:19:31;11.65;;;1.88;;
78382;SDS011;67668;52.294;4.692;2023-07-13T05:21:57;8.05;;;1.65;;
78382;SDS011;67668;52.294;4.692;2023-07-13T05:24:22;13.73;;;2.03;;
78382;SDS011;67668;52.294;4.692;2023-07-13T05:26:49;4.35;;;1.25;;
78382;SDS011;67668;52.294;4.692;2023-07-13T05:29:14;6.45;;;1.42;;
78382;SDS011;67668;52.294;4.692;2023-07-13T05:31:40;10.10;;;1.88;;
78382;SDS011;67668;52.294;4.692;2023-07-13T05:34:05;3.33;;;1.33;;
78382;SDS011;67668;52.294;4.692;2023-07-13T05:36:31;6.30;;;1.60;;
78382;SDS011;67668;52.294;4.692;2023-07-13T05:38:56;5.95;;;1.65;;
78382;SDS011;67668;52.294;4.692;2023-07-13T05:41:22;7.73;;;1.20;;
78382;SDS011;67668;52.294;4.692;2023-07-13T05:43:47;6.30;;;1.55;;
78382;SDS011;67668;52.294;4.692;2023-07-13T05:46:12;7.38;;;1.52;;
78382;SDS011;67668;52.294;4.692;2023-07-13T05:48:38;4.95;;;1.55;;
78382;SDS011;67668;52.294;4.692;2023-07-13T05:51:05;5.53;;;1.35;;
78382;SDS011;67668;52.294;4.692;2023-07-13T05:53:30;7.38;;;2.67;;
78382;SDS011;67668;52.294;4.692;2023-07-13T05:55:55;6.85;;;1.42;;
78382;SDS011;67668;52.294;4.692;2023-07-13T05:58:21;7.20;;;2.15;;
78382;SDS011;67668;52.294;4.692;2023-07-13T06:00:47;7.45;;;1.48;;
78382;SDS011;67668;52.294;4.692;2023-07-13T06:03:13;7.50;;;1.40;;
78382;SDS011;67668;52.294;4.692;2023-07-13T06:05:39;4.40;;;1.42;;
78382;SDS011;67668;52.294;4.692;2023-07-13T06:08:05;5.90;;;1.40;;
78382;SDS011;67668;52.294;4.692;2023-07-13T06:10:32;7.28;;;1.38;;
78382;SDS011;67668;52.294;4.692;2023-07-13T06:12:58;7.85;;;2.03;;
78382;SDS011;67668;52.294;4.692;2023-07-13T06:15:24;16.40;;;2.25;;
78382;SDS011;67668;52.294;4.692;2023-07-13T06:17:50;5.65;;;1.77;;
78382;SDS011;67668;52.294;4.692;2023-07-13T06:20:16;7.68;;;1.55;;
78382;SDS011;67668;52.294;4.692;2023-07-13T06:22:41;8.73;;;2.08;;
78382;SDS011;67668;52.294;4.692;2023-07-13T06:25:07;4.80;;;1.63;;
78382;SDS011;67668;52.294;4.692;2023-07-13T06:27:34;7.82;;;2.03;;
78382;SDS011;67668;52.294;4.692;2023-07-13T06:29:59;5.47;;;1.30;;
78382;SDS011;67668;52.294;4.692;2023-07-13T06:32:24;4.27;;;1.50;;
78382;SDS011;67668;52.294;4.692;2023-07-13T06:34:50;4.45;;;1.52;;
78382;SDS011;67668;52.294;4.692;2023-07-13T06:37:17;7.68;;;1.58;;
78382;SDS011;67668;52.294;4.692;2023-07-13T06:39:43;5.60;;;1.45;;
78382;SDS011;67668;52.294;4.692;2023-07-13T06:42:08;11.57;;;2.13;;
78382;SDS011;67668;52.294;4.692;2023-07-13T06:44:34;8.50;;;1.17;;
78382;SDS011;67668;52.294;4.692;2023-07-13T06:46:59;5.28;;;2.05;;
78382;SDS011;67668;52.294;4.692;2023-07-13T06:49:25;6.88;;;1.20;;
78382;SDS011;67668;52.294;4.692;2023-07-13T06:51:51;5.38;;;1.40;;
78382;SDS011;67668;52.294;4.692;2023-07-13T06:54:16;2.75;;;1.42;;
78382;SDS011;67668;52.294;4.692;2023-07-13T06:56:41;7.72;;;1.23;;
78382;SDS011;67668;52.294;4.692;2023-07-13T06:59:08;6.68;;;1.45;;
78382;SDS011;67668;52.294;4.692;2023-07-13T07:01:33;4.53;;;1.70;;
78382;SDS011;67668;52.294;4.692;2023-07-13T07:03:59;4.63;;;1.70;;
78382;SDS011;67668;52.294;4.692;2023-07-13T07:06:24;5.40;;;1.70;;
78382;SDS011;67668;52.294;4.692;2023-07-13T07:08:50;5.57;;;1.30;;
78382;SDS011;67668;52.294;4.692;2023-07-13T07:11:18;6.28;;;1.25;;
78382;SDS011;67668;52.294;4.692;2023-07-13T07:13:48;5.15;;;1.75;;
78382;SDS011;67668;52.294;4.692;2023-07-13T07:16:14;6.25;;;1.65;;
78382;SDS011;67668;52.294;4.692;2023-07-13T07:18:40;5.68;;;1.42;;
78382;SDS011;67668;52.294;4.692;2023-07-13T07:21:06;6.40;;;1.58;;
78382;SDS011;67668;52.294;4.692;2023-07-13T07:23:31;7.65;;;1.40;;
78382;SDS011;67668;52.294;4.692;2023-07-13T07:25:57;4.70;;;1.40;;
78382;SDS011;67668;52.294;4.692;2023-07-13T07:28:22;4.55;;;1.42;;
78382;SDS011;67668;52.294;4.692;2023-07-13T07:30:48;4.97;;;1.15;;
78382;SDS011;67668;52.294;4.692;2023-07-13T07:33:17;9.48;;;1.35;;
78382;SDS011;67668;52.294;4.692;2023-07-13T07:35:42;8.87;;;1.30;;
78382;SDS011;67668;52.294;4.692;2023-07-13T07:38:08;5.63;;;1.35;;
78382;SDS011;67668;52.294;4.692;2023-07-13T07:40:37;6.20;;;2.25;;
78382;SDS011;67668;52.294;4.692;2023-07-13T07:43:05;6.18;;;1.33;;
78382;SDS011;67668;52.294;4.692;2023-07-13T07:45:31;4.88;;;1.65;;
78382;SDS011;67668;52.294;4.692;2023-07-13T07:47:56;4.30;;;1.67;;
78382;SDS011;67668;52.294;4.692;2023-07-13T07:50:24;5.80;;;1.10;;
78382;SDS011;67668;52.294;4.692;2023-07-13T07:52:51;6.03;;;1.30;;
78382;SDS011;67668;52.294;4.692;2023-07-13T07:55:16;4.78;;;1.42;;
78382;SDS011;67668;52.294;4.692;2023-07-13T07:57:42;4.15;;;1.50;;
78382;SDS011;67668;52.294;4.692;2023-07-13T08:00:07;6.13;;;1.30;;
78382;SDS011;67668;52.294;4.692;2023-07-13T08:02:33;4.50;;;1.65;;
78382;SDS011;67668;52.294;4.692;2023-07-13T08:04:58;8.32;;;1.77;;
78382;SDS011;67668;52.294;4.692;2023-07-13T08:07:24;4.90;;;1.20;;
78382;SDS011;67668;52.294;4.692;2023-07-13T08:09:52;7.88;;;1.80;;
78382;SDS011;67668;52.294;4.692;2023-07-13T08:12:20;7.30;;;1.20;;
78382;SDS011;67668;52.294;4.692;2023-07-13T08:14:45;15.07;;;2.00;;
78382;SDS011;67668;52.294;4.692;2023-07-13T08:17:15;3.10;;;1.02;;
78382;SDS011;67668;52.294;4.692;2023-07-13T08:19:41;11.40;;;1.90;;
78382;SDS011;67668;52.294;4.692;2023-07-13T08:22:06;6.20;;;1.15;;
78382;SDS011;67668;52.294;4.692;2023-07-13T08:24:31;6.82;;;1.75;;
78382;SDS011;67668;52.294;4.692;2023-07-13T08:26:57;7.57;;;1.70;;
78382;SDS011;67668;52.294;4.692;2023-07-13T08:29:22;5.13;;;1.20;;
78382;SDS011;67668;52.294;4.692;2023-07-13T08:31:48;4.50;;;1.20;;
78382;SDS011;67668;52.294;4.692;2023-07-13T08:34:13;6.93;;;1.48;;
78382;SDS011;67668;52.294;4.692;2023-07-13T08:36:40;6.30;;;1.60;;
78382;SDS011;67668;52.294;4.692;2023-07-13T08:39:06;5.68;;;1.58;;
78382;SDS011;67668;52.294;4.692;2023-07-13T08:41:32;5.78;;;1.17;;
78382;SDS011;67668;52.294;4.692;2023-07-13T08:43:58;5.22;;;1.15;;
78382;SDS011;67668;52.294;4.692;2023-07-13T08:46:28;4.85;;;1.45;;
78382;SDS011;67668;52.294;4.692;2023-07-13T08:49:01;3.50;;;1.10;;
78382;SDS011;67668;52.294;4.692;2023-07-13T08:56:49;3.65;;;1.10;;
78382;SDS011;67668;52.294;4.692;2023-07-13T08:59:18;5.95;;;1.13;;
78382;SDS011;67668;52.294;4.692;2023-07-13T09:04:23;4.25;;;1.30;;
78382;SDS011;67668;52.294;4.692;2023-07-13T09:07:07;5.15;;;1.60;;
78382;SDS011;67668;52.294;4.692;2023-07-13T09:09:50;5.05;;;0.93;;
78382;SDS011;67668;52.294;4.692;2023-07-13T09:15:17;4.78;;;1.40;;
78382;SDS011;67668;52.294;4.692;2023-07-13T09:18:05;6.78;;;1.92;;
78382;SDS011;67668;52.294;4.692;2023-07-13T09:20:49;5.72;;;1.50;;
78382;SDS011;67668;52.294;4.692;2023-07-13T09:23:22;4.20;;;1.35;;
78382;SDS011;67668;52.294;4.692;2023-07-13T09:25:51;7.57;;;1.70;;
78382;SDS011;67668;52.294;4.692;2023-07-13T09:28:43;7.03;;;1.60;;
78382;SDS011;67668;52.294;4.692;2023-07-13T09:31:43;4.93;;;1.13;;
78382;SDS011;67668;52.294;4.692;2023-07-13T09:34:11;4.72;;;1.45;;
78382;SDS011;67668;52.294;4.692;2023-07-13T09:36:37;3.85;;;1.40;;
78382;SDS011;67668;52.294;4.692;2023-07-13T09:44:18;4.30;;;1.42;;
78382;SDS011;67668;52.294;4.692;2023-07-13T09:46:56;4.97;;;1.35;;
78382;SDS011;67668;52.294;4.692;2023-07-13T09:49:40;7.22;;;1.60;;
78382;SDS011;67668;52.294;4.692;2023-07-13T09:52:09;6.32;;;1.08;;
78382;SDS011;67668;52.294;4.692;2023-07-13T09:57:03;4.97;;;1.73;;
78382;SDS011;67668;52.294;4.692;2023-07-13T09:59:43;4.50;;;1.33;;
78382;SDS011;67668;52.294;4.692;2023-07-13T10:05:06;5.28;;;1.38;;
78382;SDS011;67668;52.294;4.692;2023-07-13T10:07:41;5.22;;;1.33;;
78382;SDS011;67668;52.294;4.692;2023-07-13T10:10:16;6.85;;;1.55;;
78382;SDS011;67668;52.294;4.692;2023-07-13T10:12:46;9.93;;;1.50;;
78382;SDS011;67668;52.294;4.692;2023-07-13T10:15:16;3.28;;;1.20;;
78382;SDS011;67668;52.294;4.692;2023-07-13T10:17:46;5.95;;;1.58;;
78382;SDS011;67668;52.294;4.692;2023-07-13T10:20:12;3.38;;;1.02;;
78382;SDS011;67668;52.294;4.692;2023-07-13T10:25:20;3.58;;;1.30;;
78382;SDS011;67668;52.294;4.692;2023-07-13T10:27:49;4.75;;;1.55;;
78382;SDS011;67668;52.294;4.692;2023-07-13T10:30:27;5.63;;;1.55;;
78382;SDS011;67668;52.294;4.692;2023-07-13T10:33:00;5.13;;;1.73;;
78382;SDS011;67668;52.294;4.692;2023-07-13T10:35:29;4.30;;;1.20;;
78382;SDS011;67668;52.294;4.692;2023-07-13T10:38:05;4.50;;;1.65;;
78382;SDS011;67668;52.294;4.692;2023-07-13T10:40:37;4.78;;;1.58;;
78382;SDS011;67668;52.294;4.692;2023-07-13T10:45:45;4.00;;;1.23;;
78382;SDS011;67668;52.294;4.692;2023-07-13T10:48:15;4.13;;;1.50;;
78382;SDS011;67668;52.294;4.692;2023-07-13T10:50:43;5.03;;;1.60;;
78382;SDS011;67668;52.294;4.692;2023-07-13T10:53:20;5.95;;;1.55;;
78382;SDS011;67668;52.294;4.692;2023-07-13T10:55:58;5.65;;;1.30;;
78382;SDS011;67668;52.294;4.692;2023-07-13T10:58:31;6.50;;;1.27;;
78382;SDS011;67668;52.294;4.692;2023-07-13T11:12:25;5.57;;;1.35;;
78382;SDS011;67668;52.294;4.692;2023-07-13T11:20:18;4.05;;;1.05;;
78382;SDS011;67668;52.294;4.692;2023-07-13T11:38:43;5.30;;;1.60;;
78382;SDS011;67668;52.294;4.692;2023-07-13T11:41:31;5.35;;;1.52;;
78382;SDS011;67668;52.294;4.692;2023-07-13T11:44:09;6.55;;;1.95;;
78382;SDS011;67668;52.294;4.692;2023-07-13T11:46:37;8.27;;;2.03;;
78382;SDS011;67668;52.294;4.692;2023-07-13T11:49:04;5.78;;;1.60;;
78382;SDS011;67668;52.294;4.692;2023-07-13T11:51:32;5.40;;;1.52;;
78382;SDS011;67668;52.294;4.692;2023-07-13T11:54:10;5.15;;;1.63;;
78382;SDS011;67668;52.294;4.692;2023-07-13T11:56:45;4.53;;;1.30;;
78382;SDS011;67668;52.294;4.692;2023-07-13T11:59:11;6.32;;;1.92;;
78382;SDS011;67668;52.294;4.692;2023-07-13T12:01:44;5.13;;;1.90;;
78382;SDS011;67668;52.294;4.692;2023-07-13T12:04:23;3.20;;;1.67;;
78382;SDS011;67668;52.294;4.692;2023-07-13T12:06:56;4.43;;;1.55;;
78382;SDS011;67668;52.294;4.692;2023-07-13T12:09:29;5.07;;;1.42;;
78382;SDS011;67668;52.294;4.692;2023-07-13T12:11:56;3.78;;;1.55;;
78382;SDS011;67668;52.294;4.692;2023-07-13T12:14:23;5.68;;;1.90;;
78382;SDS011;67668;52.294;4.692;2023-07-13T12:16:50;7.50;;;1.75;;
78382;SDS011;67668;52.294;4.692;2023-07-13T12:19:20;6.68;;;1.77;;
78382;SDS011;67668;52.294;4.692;2023-07-13T12:21:48;5.05;;;1.60;;
78382;SDS011;67668;52.294;4.692;2023-07-13T12:24:19;7.45;;;1.63;;
78382;SDS011;67668;52.294;4.692;2023-07-13T12:26:58;11.63;;;1.73;;
78382;SDS011;67668;52.294;4.692;2023-07-13T12:29:26;5.03;;;2.08;;
78382;SDS011;67668;52.294;4.692;2023-07-13T12:31:52;4.40;;;1.67;;
78382;SDS011;67668;52.294;4.692;2023-07-13T12:34:18;8.50;;;2.67;;
78382;SDS011;67668;52.294;4.692;2023-07-13T12:36:48;5.95;;;1.90;;
78382;SDS011;67668;52.294;4.692;2023-07-13T12:39:35;8.65;;;1.90;;
78382;SDS011;67668;52.294;4.692;2023-07-13T12:44:56;6.15;;;1.52;;
78382;SDS011;67668;52.294;4.692;2023-07-13T12:47:31;4.82;;;1.73;;
78382;SDS011;67668;52.294;4.692;2023-07-13T12:50:13;6.68;;;1.98;;
78382;SDS011;67668;52.294;4.692;2023-07-13T12:53:03;5.60;;;1.90;;
78382;SDS011;67668;52.294;4.692;2023-07-13T12:55:39;6.97;;;2.00;;
78382;SDS011;67668;52.294;4.692;2023-07-13T12:58:10;4.82;;;1.77;;
78382;SDS011;67668;52.294;4.692;2023-07-13T13:00:53;5.78;;;1.58;;
78382;SDS011;67668;52.294;4.692;2023-07-13T13:03:22;7.97;;;2.05;;
78382;SDS011;67668;52.294;4.692;2023-07-13T13:06:02;6.50;;;1.60;;
78382;SDS011;67668;52.294;4.692;2023-07-13T13:08:30;6.53;;;1.75;;
78382;SDS011;67668;52.294;4.692;2023-07-13T13:10:57;4.47;;;1.70;;
78382;SDS011;67668;52.294;4.692;2023-07-13T13:13:23;6.30;;;2.22;;
78382;SDS011;67668;52.294;4.692;2023-07-13T13:15:49;6.07;;;1.45;;
78382;SDS011;67668;52.294;4.692;2023-07-13T13:18:18;5.78;;;1.70;;
78382;SDS011;67668;52.294;4.692;2023-07-13T13:20:45;5.93;;;2.20;;
78382;SDS011;67668;52.294;4.692;2023-07-13T13:23:18;4.40;;;1.80;;
78382;SDS011;67668;52.294;4.692;2023-07-13T13:25:48;4.20;;;1.77;;
78382;SDS011;67668;52.294;4.692;2023-07-13T13:28:16;4.97;;;1.27;;
78382;SDS011;67668;52.294;4.692;2023-07-13T13:30:44;4.85;;;1.60;;
78382;SDS011;67668;52.294;4.692;2023-07-13T13:33:13;2.97;;;1.30;;
78382;SDS011;67668;52.294;4.692;2023-07-13T13:35:42;5.13;;;1.50;;
78382;SDS011;67668;52.294;4.692;2023-07-13T13:38:16;5.07;;;1.58;;
78382;SDS011;67668;52.294;4.692;2023-07-13T13:43:32;5.90;;;1.35;;
78382;SDS011;67668;52.294;4.692;2023-07-13T13:45:58;4.32;;;1.80;;
78382;SDS011;67668;52.294;4.692;2023-07-13T13:48:33;2.75;;;1.17;;
78382;SDS011;67668;52.294;4.692;2023-07-13T13:51:17;4.35;;;1.45;;
78382;SDS011;67668;52.294;4.692;2023-07-13T13:53:45;4.07;;;1.40;;
78382;SDS011;67668;52.294;4.692;2023-07-13T13:56:12;5.10;;;1.33;;
78382;SDS011;67668;52.294;4.692;2023-07-13T13:58:38;4.60;;;1.60;;
78382;SDS011;67668;52.294;4.692;2023-07-13T14:01:04;7.35;;;1.92;;
78382;SDS011;67668;52.294;4.692;2023-07-13T14:03:33;4.22;;;1.27;;
78382;SDS011;67668;52.294;4.692;2023-07-13T14:05:59;4.72;;;1.55;;
78382;SDS011;67668;52.294;4.692;2023-07-13T14:08:25;2.47;;;1.15;;
78382;SDS011;67668;52.294;4.692;2023-07-13T14:10:52;4.95;;;1.42;;
78382;SDS011;67668;52.294;4.692;2023-07-13T14:13:22;5.13;;;1.52;;
78382;SDS011;67668;52.294;4.692;2023-07-13T14:15:52;4.82;;;2.03;;
78382;SDS011;67668;52.294;4.692;2023-07-13T14:18:18;4.18;;;1.42;;
78382;SDS011;67668;52.294;4.692;2023-07-13T14:20:44;6.32;;;1.80;;
78382;SDS011;67668;52.294;4.692;2023-07-13T14:23:12;6.63;;;1.67;;
78382;SDS011;67668;52.294;4.692;2023-07-13T14:25:38;4.38;;;1.92;;
78382;SDS011;67668;52.294;4.692;2023-07-13T14:28:13;5.65;;;2.13;;
78382;SDS011;67668;52.294;4.692;2023-07-13T14:30:46;5.88;;;1.50;;
78382;SDS011;67668;52.294;4.692;2023-07-13T14:33:12;5.03;;;1.52;;
78382;SDS011;67668;52.294;4.692;2023-07-13T14:35:39;2.97;;;1.40;;
78382;SDS011;67668;52.294;4.692;2023-07-13T14:38:04;5.38;;;1.48;;
78382;SDS011;67668;52.294;4.692;2023-07-13T14:40:33;5.00;;;1.65;;
78382;SDS011;67668;52.294;4.692;2023-07-13T14:42:58;3.92;;;1.55;;
78382;SDS011;67668;52.294;4.692;2023-07-13T14:45:24;5.22;;;1.70;;
78382;SDS011;67668;52.294;4.692;2023-07-13T14:47:50;4.90;;;1.70;;
78382;SDS011;67668;52.294;4.692;2023-07-13T14:50:21;5.82;;;1.60;;
78382;SDS011;67668;52.294;4.692;2023-07-13T14:52:52;3.13;;;1.33;;
78382;SDS011;67668;52.294;4.692;2023-07-13T14:55:18;4.22;;;1.23;;
78382;SDS011;67668;52.294;4.692;2023-07-13T14:57:44;4.25;;;1.70;;
78382;SDS011;67668;52.294;4.692;2023-07-13T15:00:14;4.13;;;1.40;;
78382;SDS011;67668;52.294;4.692;2023-07-13T15:02:41;6.30;;;2.03;;
78382;SDS011;67668;52.294;4.692;2023-07-13T15:05:17;4.60;;;1.35;;
78382;SDS011;67668;52.294;4.692;2023-07-13T15:07:46;3.50;;;1.40;;
78382;SDS011;67668;52.294;4.692;2023-07-13T15:10:17;8.07;;;1.27;;
78382;SDS011;67668;52.294;4.692;2023-07-13T15:12:43;4.70;;;1.10;;
78382;SDS011;67668;52.294;4.692;2023-07-13T15:15:08;3.72;;;1.33;;
78382;SDS011;67668;52.294;4.692;2023-07-13T15:17:38;4.88;;;1.25;;
78382;SDS011;67668;52.294;4.692;2023-07-13T15:22:43;2.63;;;1.10;;
78382;SDS011;67668;52.294;4.692;2023-07-13T15:25:17;6.03;;;1.50;;
78382;SDS011;67668;52.294;4.692;2023-07-13T15:27:44;6.03;;;1.15;;
78382;SDS011;67668;52.294;4.692;2023-07-13T15:30:10;4.45;;;1.58;;
78382;SDS011;67668;52.294;4.692;2023-07-13T15:32:36;5.35;;;1.40;;
78382;SDS011;67668;52.294;4.692;2023-07-13T15:35:01;3.00;;;1.13;;
78382;SDS011;67668;52.294;4.692;2023-07-13T15:37:27;2.83;;;0.90;;
78382;SDS011;67668;52.294;4.692;2023-07-13T15:39:53;2.72;;;1.02;;
78382;SDS011;67668;52.294;4.692;2023-07-13T15:42:19;8.60;;;1.30;;
78382;SDS011;67668;52.294;4.692;2023-07-13T15:44:45;3.92;;;1.08;;
78382;SDS011;67668;52.294;4.692;2023-07-13T15:47:12;4.35;;;0.95;;
78382;SDS011;67668;52.294;4.692;2023-07-13T15:49:39;3.65;;;0.98;;
78382;SDS011;67668;52.294;4.692;2023-07-13T15:52:26;2.38;;;1.15;;
78382;SDS011;67668;52.294;4.692;2023-07-13T15:54:53;3.25;;;1.35;;
78382;SDS011;67668;52.294;4.692;2023-07-13T15:57:19;5.72;;;1.50;;
78382;SDS011;67668;52.294;4.692;2023-07-13T15:59:44;5.72;;;1.25;;
78382;SDS011;67668;52.294;4.692;2023-07-13T16:02:13;2.60;;;1.08;;
78382;SDS011;67668;52.294;4.692;2023-07-13T16:04:42;3.55;;;1.30;;